Time;durP1;ratioP1;P1;durP2;ratioP2;P2;SDS_P1;SDS_P2;PMS_P1;PMS_P2;Temp;Humidity;BMP_temperature;BMP_pressure;BME280_temperature;BME280_humidity;BME280_pressure;Samples;Min_cycle;Max_cycle;Signal;HPM_P1;HPM_P2
2022/09/02 04:22:33;;;;;;;11.48;7.22;;;;;;;14.18;90.95;100173.28;5088915;28;20332;-66
2022/09/02 04:24:59;;;;;;;11.13;6.45;;;;;;;14.16;93.97;100172.69;5089069;28;20079;-66
2022/09/02 04:27:25;;;;;;;10.25;4.80;;;;;;;14.14;90.80;100164.81;5087701;28;20127;-67
2022/09/02 04:29:51;;;;;;;6.18;4.20;;;;;;;14.19;88.96;100167.72;5101403;22;20041;-64
2022/09/02 04:32:18;;;;;;;6.93;4.55;;;;;;;14.19;88.61;100172.25;5063449;28;20091;-64
2022/09/02 04:34:44;;;;;;;7.80;4.28;;;;;;;14.23;90.09;100163.66;5046988;28;20049;-64
2022/09/02 04:37:12;;;;;;;7.93;4.47;;;;;;;14.21;90.95;100164.84;5063612;28;20544;-63
2022/09/02 04:39:38;;;;;;;6.43;4.65;;;;;;;14.23;88.78;100166.31;5046622;28;20037;-66
2022/09/02 04:42:04;;;;;;;7.15;4.05;;;;;;;14.21;90.14;100163.00;5046673;28;20409;-67
2022/09/02 04:44:30;;;;;;;5.53;4.20;;;;;;;14.22;88.88;100169.22;5046737;28;20033;-66
2022/09/02 04:46:56;;;;;;;7.28;4.38;;;;;;;14.24;88.21;100169.81;5046591;28;20068;-66
2022/09/02 04:49:22;;;;;;;5.25;3.45;;;;;;;14.22;88.56;100166.53;5046275;28;20490;-66
2022/09/02 04:51:52;;;;;;;6.00;4.07;;;;;;;14.21;88.13;100171.03;5046750;28;20035;-65
2022/09/02 04:54:18;;;;;;;5.78;3.80;;;;;;;14.22;89.28;100166.53;5047926;28;20049;-66
2022/09/02 04:56:46;;;;;;;8.07;4.53;;;;;;;14.19;90.62;100164.22;5046577;28;20113;-66
2022/09/02 04:59:13;;;;;;;5.57;3.90;;;;;;;14.25;90.69;100166.13;5046374;28;20037;-66
2022/09/02 05:01:44;;;;;;;6.20;4.05;;;;;;;14.21;88.27;100175.56;5030619;28;20037;-64
2022/09/02 05:04:15;;;;;;;6.82;4.15;;;;;;;14.13;88.15;100174.72;5046380;28;20063;-66
2022/09/02 05:06:45;;;;;;;5.05;3.60;;;;;;;14.17;87.78;100167.13;5046384;28;20076;-65
2022/09/02 05:09:17;;;;;;;5.70;3.50;;;;;;;14.07;88.15;100164.78;5045903;28;20479;-66
2022/09/02 05:11:47;;;;;;;4.05;3.45;;;;;;;14.14;88.03;100170.16;5047479;28;20037;-66
2022/09/02 05:14:15;;;;;;;4.50;3.93;;;;;;;14.16;88.02;100168.16;5046111;28;20030;-64
2022/09/02 05:16:41;;;;;;;5.55;3.67;;;;;;;14.13;87.76;100164.00;5046191;28;20049;-65
2022/09/02 05:19:12;;;;;;;4.82;3.20;;;;;;;14.18;87.63;100158.03;5045700;28;20033;-66
2022/09/02 05:21:43;;;;;;;6.28;3.33;;;;;;;14.21;86.86;100156.81;5045956;28;20041;-65
2022/09/02 05:24:13;;;;;;;6.00;3.60;;;;;;;14.16;87.28;100160.09;5045894;28;20474;-66
2022/09/02 05:26:41;;;;;;;6.63;4.00;;;;;;;14.17;87.06;100159.06;5045806;28;20065;-66
2022/09/02 05:29:07;;;;;;;5.25;3.67;;;;;;;14.19;86.68;100165.06;5045466;28;20048;-66
2022/09/02 05:31:33;;;;;;;4.18;3.30;;;;;;;14.22;86.89;100166.53;5046774;28;20041;-66
2022/09/02 05:33:59;;;;;;;6.47;3.90;;;;;;;14.22;86.46;100175.38;5031907;28;20116;-66
2022/09/02 05:36:24;;;;;;;3.80;2.70;;;;;;;14.22;86.09;100170.03;5032337;28;20041;-66
2022/09/02 05:38:50;;;;;;;4.60;3.15;;;;;;;14.30;85.45;100175.22;5032171;28;20045;-66
2022/09/02 05:41:22;;;;;;;4.13;2.70;;;;;;;14.39;84.70;100168.66;5032026;28;20042;-66
2022/09/02 05:43:58;;;;;;;3.65;2.78;;;;;;;14.45;83.95;100164.34;5032374;28;20033;-66
2022/09/02 05:46:24;;;;;;;7.72;3.15;;;;;;;14.51;83.87;100171.63;5033727;28;20041;-66
2022/09/02 05:49:06;;;;;;;4.75;3.15;;;;;;;14.60;83.06;100178.44;5032093;28;20179;-66
2022/09/02 05:51:40;;;;;;;4.32;2.90;;;;;;;14.64;83.40;100168.97;5032050;28;20032;-66
2022/09/02 05:54:09;;;;;;;6.10;3.13;;;;;;;14.73;82.23;100172.28;5031995;28;20130;-65
2022/09/02 05:56:37;;;;;;;4.65;2.80;;;;;;;14.78;82.07;100175.19;5031868;28;20037;-65
2022/09/02 05:59:03;;;;;;;4.20;2.95;;;;;;;14.86;81.87;100174.19;5031611;28;20034;-66
2022/09/02 06:01:29;;;;;;;4.72;2.90;;;;;;;14.94;80.98;100171.34;5031782;28;20044;-65
2022/09/02 06:03:56;;;;;;;4.50;2.90;;;;;;;14.99;80.58;100168.84;5032032;28;20041;-66
2022/09/02 06:06:22;;;;;;;4.72;2.92;;;;;;;15.08;80.62;100167.66;5033322;28;20091;-65
2022/09/02 06:08:49;;;;;;;4.75;2.58;;;;;;;15.14;80.20;100166.00;5031758;28;20045;-65
2022/09/02 06:11:16;;;;;;;3.08;2.28;;;;;;;15.21;79.59;100172.19;5031579;28;20029;-66
2022/09/02 06:13:42;;;;;;;3.47;2.22;;;;;;;15.25;79.52;100178.78;5031738;28;20040;-65
2022/09/02 06:16:13;;;;;;;3.55;2.60;;;;;;;15.33;78.43;100170.56;5031772;28;20451;-65
2022/09/02 06:18:41;;;;;;;3.78;2.50;;;;;;;15.42;78.55;100169.31;5031656;28;20037;-66
2022/09/02 06:21:06;;;;;;;4.95;2.70;;;;;;;15.48;78.51;100168.47;5032822;28;20034;-54
2022/09/02 06:23:38;;;;;;;4.53;2.88;;;;;;;15.60;78.42;100165.19;5031788;28;20041;-53
2022/09/02 06:26:06;;;;;;;2.50;2.03;;;;;;;15.69;78.59;100169.31;5031757;28;20041;-51
2022/09/02 06:28:33;;;;;;;2.80;2.33;;;;;;;15.76;77.71;100162.09;5031939;28;20059;-51
2022/09/02 06:30:59;;;;;;;3.92;2.53;;;;;;;15.89;76.62;100159.38;5031211;28;20116;-51
2022/09/02 06:33:25;;;;;;;2.70;2.38;;;;;;;15.98;76.88;100165.38;5031606;28;20076;-54
2022/09/02 06:35:50;;;;;;;3.90;2.20;;;;;;;16.10;74.75;100160.16;5031567;28;20034;-57
2022/09/02 06:38:19;;;;;;;3.03;2.38;;;;;;;16.20;75.59;100173.97;5031447;28;20494;-52
2022/09/02 06:40:51;;;;;;;2.90;1.95;;;;;;;16.29;74.68;100165.44;5031030;28;20033;-52
2022/09/02 06:43:21;;;;;;;2.88;2.28;;;;;;;16.49;74.12;100165.38;5031202;28;20124;-55
2022/09/02 06:46:06;;;;;;;2.45;2.10;;;;;;;16.51;73.91;100165.19;5031101;28;20041;-51
2022/09/02 06:48:34;;;;;;;2.03;1.83;;;;;;;16.61;74.04;100162.00;5031327;28;20048;-53
2022/09/02 06:51:00;;;;;;;2.72;2.00;;;;;;;16.62;73.00;100160.97;5030836;28;20026;-55
2022/09/02 06:53:26;;;;;;;3.25;2.35;;;;;;;16.71;73.00;100159.72;5031315;28;20041;-55
2022/09/02 06:55:52;;;;;;;2.35;2.03;;;;;;;16.81;73.68;100158.22;5031104;28;20454;-57
2022/09/02 06:58:19;;;;;;;4.13;2.08;;;;;;;16.90;72.86;100158.78;5015022;28;20037;-54
2022/09/02 07:00:45;;;;;;;2.30;1.80;;;;;;;16.95;72.86;100150.06;5031936;28;20053;-57
2022/09/02 07:06:00;;;;;;;3.08;2.13;;;;;;;17.10;71.92;100155.97;5031076;28;20029;-58
2022/09/02 07:08:27;;;;;;;3.03;1.98;;;;;;;17.16;71.83;100160.47;5030990;28;20064;-54
2022/09/02 07:10:54;;;;;;;2.25;1.90;;;;;;;17.22;72.02;100156.09;5014310;28;20029;-56
2022/09/02 07:13:20;;;;;;;4.10;1.90;;;;;;;17.32;70.65;100151.03;5030917;28;20152;-56
2022/09/02 07:15:46;;;;;;;2.40;1.85;;;;;;;17.41;70.05;100152.44;5030960;28;20300;-62
2022/09/02 07:18:11;;;;;;;2.35;1.73;;;;;;;17.42;68.73;100146.00;5030822;28;20680;-62
2022/09/02 07:20:37;;;;;;;2.58;1.98;;;;;;;17.47;69.17;100150.69;5030387;28;20532;-63
2022/09/02 07:23:04;;;;;;;2.83;2.05;;;;;;;17.53;69.11;100150.63;5031107;28;20033;-62
2022/09/02 07:25:31;;;;;;;;;;;;;;;17.61;68.90;100144.16;5015331;28;20075;-63
2022/09/02 07:27:57;;;;;;;3.72;2.00;;;;;;;17.67;69.01;100140.59;5032110;28;19921;-63
2022/09/02 07:30:24;;;;;;;4.63;2.20;;;;;;;17.75;68.42;100148.41;5030298;28;20132;-63
2022/09/02 07:32:56;;;;;;;2.63;1.90;;;;;;;17.86;69.17;100149.53;5030639;28;20610;-63
2022/09/02 07:35:23;;;;;;;3.10;2.10;;;;;;;17.87;68.03;100145.81;5032136;28;20494;-63
2022/09/02 07:37:50;;;;;;;3.13;2.10;;;;;;;17.92;68.04;100147.81;5030528;28;20284;-62
2022/09/02 07:40:16;;;;;;;2.63;1.80;;;;;;;17.98;67.61;100147.75;5030003;28;20051;-62
2022/09/02 07:42:42;;;;;;;1.90;1.60;;;;;;;18.05;69.35;100147.66;5031684;28;20050;-62
2022/09/02 07:45:09;;;;;;;2.13;1.67;;;;;;;18.14;67.48;100152.56;5030321;28;20120;-63
2022/09/02 07:47:38;;;;;;;2.38;1.83;;;;;;;18.18;66.49;100153.72;5030374;28;20109;-62
2022/09/02 07:50:05;;;;;;;2.13;1.80;;;;;;;18.24;67.21;100152.00;5013898;28;20037;-62
2022/09/02 07:52:31;;;;;;;2.92;1.75;;;;;;;18.30;66.52;100150.28;5030391;28;20034;-62
2022/09/02 07:54:57;;;;;;;2.50;1.73;;;;;;;18.30;66.08;100143.00;5030101;28;20623;-62
2022/09/02 07:57:23;;;;;;;2.25;1.80;;;;;;;18.38;66.26;100155.38;5031522;28;20061;-60
2022/09/02 07:59:49;;;;;;;3.00;1.80;;;;;;;18.43;65.70;100156.34;5030081;28;20072;-62
2022/09/02 08:02:17;;;;;;;3.08;1.73;;;;;;;18.53;65.17;100150.41;5030081;28;20037;-62
2022/09/02 08:04:44;;;;;;;1.85;1.70;;;;;;;18.61;64.75;100150.09;5030069;28;20138;-60
2022/09/02 08:07:10;;;;;;;2.72;1.80;;;;;;;18.69;66.13;100148.97;5030141;28;20034;-61
2022/09/02 08:09:36;;;;;;;3.63;1.70;;;;;;;18.75;65.22;100150.75;5031141;28;20041;-62
2022/09/02 08:12:02;;;;;;;2.50;1.52;;;;;;;18.80;64.68;100155.47;5029925;28;20030;-61
2022/09/02 08:14:28;;;;;;;2.42;1.80;;;;;;;18.91;65.03;100157.41;5031095;28;20045;-62
2022/09/02 08:16:55;;;;;;;2.17;1.90;;;;;;;18.96;63.78;100150.25;5031150;28;20041;-61
2022/09/02 08:19:22;;;;;;;2.67;1.95;;;;;;;18.97;64.35;100156.47;5030804;28;20047;-61
2022/09/02 08:21:47;;;;;;;2.78;1.67;;;;;;;19.02;63.59;100153.06;5031113;28;20116;-62
2022/09/02 08:24:12;;;;;;;2.50;1.65;;;;;;;19.07;63.30;100156.72;5031249;28;20068;-62
2022/09/02 08:26:38;;;;;;;1.92;1.60;;;;;;;19.15;63.77;100161.78;5031608;28;20045;-61
2022/09/02 08:29:04;;;;;;;2.20;1.83;;;;;;;19.23;62.79;100157.94;5030828;28;20060;-61
2022/09/02 08:31:31;;;;;;;2.30;1.73;;;;;;;19.28;62.33;100157.25;5031453;28;20037;-61
2022/09/02 08:33:58;;;;;;;2.72;1.90;;;;;;;19.37;62.05;100161.25;5031491;28;20120;-60
2022/09/02 08:36:23;;;;;;;1.97;1.70;;;;;;;19.46;61.54;100149.88;5031131;28;20037;-61
2022/09/02 08:38:48;;;;;;;1.90;1.70;;;;;;;19.50;62.00;100140.25;5030962;28;20103;-61
2022/09/02 08:41:27;;;;;;;2.30;1.70;;;;;;;19.62;60.97;100144.84;5029302;28;20045;-61
2022/09/02 08:43:55;;;;;;;3.72;1.77;;;;;;;19.65;60.10;100145.22;5030966;28;20048;-62
2022/09/02 08:46:25;;;;;;;2.67;1.67;;;;;;;19.78;60.10;100131.47;5030922;28;20029;-60
2022/09/02 08:48:53;;;;;;;3.33;2.00;;;;;;;19.90;59.04;100133.34;5030882;28;20410;-62
2022/09/02 08:51:36;;;;;;;3.60;1.50;;;;;;;20.00;59.74;100126.25;5030960;28;20414;-62
2022/09/02 08:54:19;;;;;;;2.10;1.38;;;;;;;20.11;57.15;100137.28;5030881;28;20104;-62
2022/09/02 08:56:44;;;;;;;3.00;1.40;;;;;;;20.16;56.92;100127.41;5030918;28;20502;-62
2022/09/02 08:59:14;;;;;;;2.17;1.40;;;;;;;20.22;57.88;100126.47;5029885;28;20131;-62
2022/09/02 09:01:49;;;;;;;2.72;1.70;;;;;;;20.32;56.00;100137.47;5031107;28;20045;-61
2022/09/02 09:04:58;;;;;;;1.95;1.50;;;;;;;20.44;56.28;100131.22;5031209;28;20517;-62
2022/09/02 09:07:40;;;;;;;1.75;1.58;;;;;;;20.59;55.20;100128.81;5031568;28;20080;-62
2022/09/02 09:10:15;;;;;;;1.60;1.20;;;;;;;20.69;54.89;100131.72;5032909;28;20045;-63
2022/09/02 09:12:40;;;;;;;3.45;1.33;;;;;;;20.69;54.43;100131.72;5034513;28;20038;-62
2022/09/02 09:15:18;;;;;;;1.25;1.15;;;;;;;20.83;54.36;100122.22;5016730;28;20041;-62
2022/09/02 09:17:58;;;;;;;2.10;1.60;;;;;;;20.99;54.22;100122.50;5034415;28;20041;-62
2022/09/02 09:20:30;;;;;;;2.15;1.50;;;;;;;21.14;52.91;100117.34;5034206;28;20550;-63
2022/09/02 09:23:02;;;;;;;2.15;1.58;;;;;;;21.24;53.22;100113.97;5034376;28;20037;-62
2022/09/02 09:25:28;;;;;;;2.22;1.50;;;;;;;21.40;51.80;100110.50;5032827;28;20052;-62
2022/09/02 09:28:00;;;;;;;2.03;1.40;;;;;;;21.64;51.38;100106.50;5034008;28;20501;-62
2022/09/02 09:30:27;;;;;;;1.88;1.40;;;;;;;21.67;51.81;100106.00;5033524;28;20048;-62
2022/09/02 09:33:03;;;;;;;1.63;1.25;;;;;;;21.94;51.02;100105.28;5033806;28;20037;-63
2022/09/02 09:35:50;;;;;;;2.80;1.52;;;;;;;22.17;50.77;100115.94;5034053;28;20041;-63
2022/09/02 09:38:15;;;;;;;;;;;;;;;22.38;49.87;100111.56;5034360;28;20498;-64
2022/09/02 09:40:41;;;;;;;2.00;1.20;;;;;;;22.55;48.57;100111.44;5033516;28;19994;-63
2022/09/02 09:43:11;;;;;;;1.35;1.10;;;;;;;22.63;46.73;100105.59;5033984;28;20053;-63
2022/09/02 09:45:46;;;;;;;1.60;1.17;;;;;;;22.59;46.48;100098.19;5033856;28;20046;-62
2022/09/02 09:48:15;;;;;;;1.20;1.02;;;;;;;22.99;46.67;100098.63;5033838;28;20414;-63
2022/09/02 09:50:47;;;;;;;1.60;1.40;;;;;;;23.21;46.57;100106.69;5032456;28;20029;-61
2022/09/02 09:53:21;;;;;;;1.30;1.20;;;;;;;23.33;44.01;100087.47;5033652;28;20633;-61
2022/09/02 09:56:00;;;;;;;1.50;1.40;;;;;;;23.28;43.68;100098.31;5033853;28;20406;-61
2022/09/02 09:58:37;;;;;;;1.10;0.98;;;;;;;23.47;43.10;100090.53;5033857;28;20321;-62
2022/09/02 10:01:22;;;;;;;1.65;1.00;;;;;;;23.80;43.93;100084.81;5033248;28;20136;-57
2022/09/02 10:04:09;;;;;;;1.50;1.20;;;;;;;24.22;42.60;100080.34;5033486;28;20037;-62
2022/09/02 10:06:40;;;;;;;2.03;0.90;;;;;;;24.37;40.78;100083.13;5033668;28;20486;-62
2022/09/02 10:09:34;;;;;;;1.70;1.10;;;;;;;24.07;40.56;100073.78;5033072;28;20116;-62
2022/09/02 10:12:08;;;;;;;1.20;1.00;;;;;;;24.90;40.82;100075.59;5033456;28;20474;-63
2022/09/02 10:14:45;;;;;;;1.48;1.08;;;;;;;25.21;39.35;100071.00;5033329;28;20061;-60
2022/09/02 10:17:44;;;;;;;1.60;0.98;;;;;;;25.73;37.84;100077.19;5032131;28;20112;-63
2022/09/02 10:20:16;;;;;;;2.00;1.17;;;;;;;26.38;37.35;100072.53;5031442;28;20041;-63
2022/09/02 10:22:50;;;;;;;1.10;1.00;;;;;;;26.64;36.19;100068.56;5033311;28;20063;-63
2022/09/02 10:25:32;;;;;;;1.38;1.05;;;;;;;26.79;35.69;100060.25;5033216;28;20402;-62
2022/09/02 10:28:34;;;;;;;1.98;1.42;;;;;;;27.31;34.13;100064.22;5033077;28;20466;-63
2022/09/02 10:31:16;;;;;;;0.93;0.93;;;;;;;27.47;33.99;100053.94;5032976;28;20033;-63
2022/09/02 10:34:02;;;;;;;0.88;0.73;;;;;;;27.49;33.29;100049.00;5033145;28;20041;-62
2022/09/02 10:36:49;;;;;;;0.90;0.80;;;;;;;27.52;33.29;100039.41;5033397;28;20048;-62
2022/09/02 10:39:33;;;;;;;1.20;0.90;;;;;;;27.78;32.69;100039.97;5032722;28;20033;-61
2022/09/02 10:42:15;;;;;;;1.45;0.70;;;;;;;27.98;31.71;100039.69;5032888;28;20049;-60
2022/09/02 10:44:49;;;;;;;1.10;0.60;;;;;;;27.92;33.10;100040.88;5033025;28;20037;-59
2022/09/02 10:47:22;;;;;;;1.15;0.90;;;;;;;28.31;31.00;100032.44;5032924;28;20120;-59
2022/09/02 10:50:06;;;;;;;1.10;1.00;;;;;;;28.55;31.73;100021.38;5032363;28;20269;-62
2022/09/02 10:53:10;;;;;;;1.08;0.80;;;;;;;28.66;31.44;100022.03;5031446;28;20346;-61
2022/09/02 10:56:06;;;;;;;0.80;0.73;;;;;;;28.82;30.72;100020.69;4952203;29;20050;-61
2022/09/02 10:58:48;;;;;;;0.80;0.80;;;;;;;29.11;29.55;100023.22;4952221;29;20071;-59
2022/09/02 11:01:19;;;;;;;0.75;0.75;;;;;;;29.38;29.27;100016.94;5014902;28;20076;-52
2022/09/02 11:04:02;;;;;;;0.93;0.60;;;;;;;29.89;28.72;100009.66;5032584;28;20046;-56
2022/09/02 11:06:31;;;;;;;0.93;0.75;;;;;;;29.60;29.17;100002.53;5032562;28;20120;-58
2022/09/02 11:09:19;;;;;;;0.90;0.73;;;;;;;29.86;28.57;99997.34;5032186;28;20048;-54
2022/09/02 11:11:59;;;;;;;0.80;0.75;;;;;;;30.20;28.92;100002.41;5032103;28;20038;-59
2022/09/02 11:15:00;;;;;;;0.52;0.50;;;;;;;30.46;28.59;100005.38;5032633;28;20483;-57
2022/09/02 11:17:44;;;;;;;0.45;0.45;;;;;;;30.68;28.22;100003.75;5008977;28;20151;-58
2022/09/02 11:20:17;;;;;;;0.65;0.60;;;;;;;31.01;26.93;99999.59;5031789;28;20084;-57
2022/09/02 11:22:56;;;;;;;0.68;0.68;;;;;;;31.14;27.82;99995.13;5032253;28;20044;-54
2022/09/02 11:25:28;;;;;;;0.50;0.45;;;;;;;31.01;27.58;99988.59;5032095;28;20041;-54
2022/09/02 11:27:54;;;;;;;0.65;0.60;;;;;;;31.08;27.50;99994.47;5032014;28;20487;-52
2022/09/02 11:30:23;;;;;;;0.45;0.45;;;;;;;31.17;26.87;99999.19;5030791;28;20112;-54
2022/09/02 11:33:01;;;;;;;0.88;0.57;;;;;;;30.53;27.66;99989.25;5031810;28;20502;-54
2022/09/02 11:35:37;;;;;;;0.65;0.63;;;;;;;30.71;27.28;99986.63;5031888;28;20551;-57
2022/09/02 11:38:14;;;;;;;0.60;0.60;;;;;;;30.67;26.72;99991.97;5031853;28;20696;-53
2022/09/02 11:40:42;;;;;;;;;;;;;;;31.39;26.06;99990.09;5031784;28;20088;-57
2022/09/02 11:43:35;;;;;;;1.38;0.60;;;;;;;31.93;25.35;99975.03;5031944;28;19917;-56
2022/09/02 11:46:26;;;;;;;1.08;0.70;;;;;;;31.98;27.54;99988.66;5031660;28;20076;-54
2022/09/02 11:49:28;;;;;;;0.90;0.70;;;;;;;32.12;25.02;99992.06;5031481;28;20033;-55
2022/09/02 11:52:15;;;;;;;1.10;0.60;;;;;;;32.51;23.94;99986.75;5029970;28;20041;-59
2022/09/02 11:54:45;;;;;;;1.23;0.85;;;;;;;32.21;25.50;99986.56;5030370;28;20163;-53
2022/09/02 11:57:19;;;;;;;0.80;0.80;;;;;;;32.53;25.08;99978.94;5030068;28;20038;-62
2022/09/02 11:59:50;;;;;;;0.68;0.50;;;;;;;32.01;25.10;99976.16;5029654;28;20076;-58
2022/09/02 12:02:46;;;;;;;0.98;0.60;;;;;;;32.60;25.00;99974.59;5031067;28;20575;-60
2022/09/02 12:05:33;;;;;;;0.52;0.52;;;;;;;32.83;24.31;99971.59;5028233;28;20033;-60
2022/09/02 12:08:14;;;;;;;1.20;0.65;;;;;;;31.69;24.08;99971.88;5029731;28;20033;-60
2022/09/02 12:10:41;;;;;;;0.60;0.50;;;;;;;31.90;23.42;99967.44;5029466;28;20474;-60
2022/09/02 12:13:08;;;;;;;0.40;0.40;;;;;;;32.31;24.06;99966.13;5028059;28;20021;-56
2022/09/02 12:15:37;;;;;;;0.55;0.50;;;;;;;32.49;24.53;99967.78;5030773;28;20116;-60
2022/09/02 12:18:10;;;;;;;0.82;0.80;;;;;;;32.80;25.61;99967.56;5029615;28;20037;-57
2022/09/02 12:20:35;;;;;;;0.25;0.25;;;;;;;32.82;23.60;99965.28;5030471;28;20041;-63
2022/09/02 12:23:01;;;;;;;0.73;0.70;;;;;;;33.25;22.79;99961.56;5031274;28;20064;-63
2022/09/02 12:25:39;;;;;;;0.93;0.70;;;;;;;33.02;23.40;99960.22;5031273;28;20057;-63
2022/09/02 12:28:13;;;;;;;1.02;0.52;;;;;;;33.32;21.60;99959.13;5031165;28;20029;-64
2022/09/02 12:31:09;;;;;;;0.50;0.50;;;;;;;32.82;23.56;99958.97;5029948;28;20351;-64
2022/09/02 12:33:40;;;;;;;0.50;0.50;;;;;;;32.87;23.22;99961.59;5029230;28;20037;-64
2022/09/02 12:36:07;;;;;;;0.77;0.60;;;;;;;33.03;21.89;99946.09;5027842;28;20036;-64
2022/09/02 12:38:39;;;;;;;0.50;0.50;;;;;;;33.29;22.76;99948.75;5030739;28;20116;-64
2022/09/02 12:41:04;;;;;;;0.82;0.50;;;;;;;33.60;22.36;99942.94;5030053;28;20046;-64
2022/09/02 12:43:40;;;;;;;0.55;0.30;;;;;;;32.89;21.81;99938.03;5031688;28;20033;-65
2022/09/02 12:46:32;;;;;;;0.50;0.50;;;;;;;33.50;21.58;99937.78;5031857;28;20037;-65
2022/09/02 12:49:35;;;;;;;0.38;0.38;;;;;;;32.73;22.46;99925.06;5005183;28;20140;-65
2022/09/02 12:52:02;;;;;;;0.50;0.50;;;;;;;33.50;21.72;99920.41;5033483;28;20567;-63
2022/09/02 12:54:37;;;;;;;1.75;0.60;;;;;;;33.97;21.72;99929.34;5034288;28;20494;-65
2022/09/02 12:57:03;;;;;;;0.55;0.50;;;;;;;34.01;20.85;99920.06;5034103;28;20040;-65
2022/09/02 12:59:32;;;;;;;0.70;0.60;;;;;;;33.46;21.53;99914.75;5034042;28;20516;-65
2022/09/02 13:02:03;;;;;;;0.50;0.50;;;;;;;34.04;21.18;99907.53;5034039;28;20032;-63
2022/09/02 13:04:44;;;;;;;0.50;0.50;;;;;;;34.20;20.81;99905.75;5038070;28;20128;-64
2022/09/02 13:07:45;;;;;;;0.45;0.40;;;;;;;34.33;21.04;99897.50;5040908;28;20044;-64
2022/09/02 13:10:37;;;;;;;0.70;0.70;;;;;;;33.38;21.64;99887.97;5043929;28;20044;-63
2022/09/02 13:13:13;;;;;;;0.40;0.40;;;;;;;33.55;21.40;99890.66;5035034;28;20425;-64
2022/09/02 13:16:05;;;;;;;0.60;0.50;;;;;;;33.90;21.58;99874.63;5032229;28;20029;-63
2022/09/02 13:18:55;;;;;;;0.60;0.57;;;;;;;33.30;21.87;99877.81;5033649;28;20087;-64
2022/09/02 13:21:32;;;;;;;0.45;0.40;;;;;;;33.40;22.30;99874.69;5032231;28;20390;-63
2022/09/02 13:24:43;;;;;;;1.50;0.40;;;;;;;33.01;21.62;99862.88;5031973;28;20037;-64
2022/09/02 13:27:23;;;;;;;0.88;0.57;;;;;;;33.53;21.59;99862.59;5033139;28;20029;-64
2022/09/02 13:30:15;;;;;;;1.08;0.60;;;;;;;33.51;20.97;99867.63;5033130;28;20033;-64
2022/09/02 13:32:41;;;;;;;0.40;0.40;;;;;;;33.24;22.20;99855.09;5032140;28;20048;-64
2022/09/02 13:35:15;;;;;;;0.40;0.40;;;;;;;33.74;21.38;99857.06;5033487;28;20374;-64
2022/09/02 13:37:43;;;;;;;0.35;0.32;;;;;;;33.64;21.86;99852.75;5032023;28;20041;-63
2022/09/02 13:40:32;;;;;;;0.75;0.47;;;;;;;33.89;21.03;99859.19;5033026;28;20037;-64
2022/09/02 13:43:19;;;;;;;0.52;0.52;;;;;;;33.72;20.96;99843.59;5030147;28;20125;-65
2022/09/02 13:45:46;;;;;;;0.95;0.45;;;;;;;34.47;20.34;99853.81;5031907;28;20442;-65
2022/09/02 13:48:27;;;;;;;1.10;0.60;;;;;;;34.21;20.15;99854.88;5033385;28;20025;-65
2022/09/02 13:50:56;;;;;;;0.57;0.57;;;;;;;33.37;21.70;99853.25;5033343;28;20041;-63
2022/09/02 13:53:33;;;;;;;0.60;0.50;;;;;;;33.02;21.82;99852.66;5033333;28;20037;-64
2022/09/02 13:56:00;;;;;;;0.63;0.60;;;;;;;31.92;22.64;99848.69;5033838;28;20502;-63
2022/09/02 13:58:28;;;;;;;0.32;0.32;;;;;;;31.94;23.05;99852.72;5033897;28;20116;-62
2022/09/02 14:00:55;;;;;;;0.77;0.50;;;;;;;31.20;24.21;99844.53;5032693;28;20442;-63
2022/09/02 14:03:21;;;;;;;0.43;0.40;;;;;;;30.96;25.16;99840.25;5056474;28;20051;-62
2022/09/02 14:05:51;;;;;;;0.80;0.43;;;;;;;29.99;25.66;99831.78;5033187;28;20033;-61
2022/09/02 14:08:22;;;;;;;1.05;0.70;;;;;;;29.87;25.33;99831.53;5032869;28;20042;-62
2022/09/02 14:10:51;;;;;;;0.47;0.45;;;;;;;29.32;26.73;99831.66;5032488;28;20068;-60
2022/09/02 14:13:17;;;;;;;0.63;0.55;;;;;;;29.17;26.43;99815.53;5032886;28;20125;-62
2022/09/02 14:15:42;;;;;;;0.50;0.50;;;;;;;28.79;26.71;99820.41;5030291;28;20439;-60
2022/09/02 14:18:13;;;;;;;1.48;0.70;;;;;;;28.80;27.07;99813.81;5032839;28;20029;-62
2022/09/02 14:20:56;;;;;;;0.32;0.32;;;;;;;28.12;27.42;99810.63;5032485;28;20088;-61
2022/09/02 14:23:22;;;;;;;0.45;0.40;;;;;;;28.36;27.19;99805.06;5033236;28;20041;-60
2022/09/02 14:25:59;;;;;;;1.05;0.70;;;;;;;28.09;27.58;99783.84;5032897;28;20367;-63
2022/09/02 14:28:28;;;;;;;0.70;0.50;;;;;;;28.10;27.90;99785.50;5030287;28;20091;-64
2022/09/02 14:31:02;;;;;;;0.52;0.40;;;;;;;27.45;29.04;99788.16;5031986;28;20041;-63
2022/09/02 14:33:40;;;;;;;0.45;0.45;;;;;;;27.38;29.00;99775.94;5030518;28;20029;-63
2022/09/02 14:36:16;;;;;;;0.40;0.40;;;;;;;27.47;28.62;99779.66;5030281;28;20025;-62
2022/09/02 14:38:45;;;;;;;0.82;0.73;;;;;;;27.35;28.09;99776.53;5029739;28;20025;-63
2022/09/02 14:41:16;;;;;;;3.50;0.57;;;;;;;27.27;29.66;99778.84;5032107;28;20040;-61
2022/09/02 14:43:58;;;;;;;0.77;0.70;;;;;;;27.06;28.70;99772.03;5050231;28;20075;-62
2022/09/02 14:46:29;;;;;;;0.52;0.43;;;;;;;27.15;29.36;99767.53;5052751;28;20382;-64
2022/09/02 14:49:01;;;;;;;1.77;0.60;;;;;;;27.11;29.52;99761.00;5052306;28;20048;-64
2022/09/02 14:51:44;;;;;;;0.82;0.70;;;;;;;26.71;30.01;99765.84;5052324;28;20047;-64
2022/09/02 14:54:10;;;;;;;0.63;0.60;;;;;;;26.87;29.47;99774.69;5052403;28;20086;-64
2022/09/02 14:56:43;;;;;;;0.70;0.70;;;;;;;26.78;29.63;99777.25;5052420;28;20036;-64
2022/09/02 14:59:09;;;;;;;0.60;0.60;;;;;;;26.72;29.50;99775.69;5052112;28;20033;-64
2022/09/02 15:01:41;;;;;;;0.73;0.68;;;;;;;26.76;29.11;99779.47;5052057;28;20028;-63
2022/09/02 15:04:08;;;;;;;0.88;0.65;;;;;;;26.68;29.39;99776.56;5052157;28;20140;-63
2022/09/02 15:06:33;;;;;;;0.80;0.60;;;;;;;26.63;29.40;99780.16;5050049;28;20405;-64
2022/09/02 15:08:58;;;;;;;2.15;0.80;;;;;;;26.65;29.79;99777.94;5051976;28;20045;-63
2022/09/02 15:11:24;;;;;;;0.77;0.77;;;;;;;26.63;29.38;99774.69;5051690;28;20120;-63
2022/09/02 15:13:49;;;;;;;0.75;0.68;;;;;;;26.61;29.60;99779.66;5052031;28;20049;-62
2022/09/02 15:16:15;;;;;;;0.90;0.70;;;;;;;26.39;29.96;99774.66;5050574;28;20041;-61
2022/09/02 15:18:40;;;;;;;0.50;0.50;;;;;;;26.50;29.80;99772.66;5051910;28;20037;-64
2022/09/02 15:21:05;;;;;;;0.63;0.60;;;;;;;26.34;29.92;99771.16;5051591;28;20491;-64
2022/09/02 15:23:32;;;;;;;1.00;0.60;;;;;;;26.31;30.28;99769.03;5051734;28;20120;-61
2022/09/02 15:25:58;;;;;;;0.90;0.70;;;;;;;26.31;30.47;99774.47;5050582;28;20083;-63
2022/09/02 15:28:23;;;;;;;0.80;0.60;;;;;;;26.19;30.50;99778.41;5051798;28;20033;-64
2022/09/02 15:30:57;;;;;;;0.63;0.60;;;;;;;26.24;30.17;99775.63;5051282;28;20037;-64
2022/09/02 15:33:22;;;;;;;0.50;0.50;;;;;;;26.03;30.04;99781.56;5050385;28;20040;-63
2022/09/02 15:35:47;;;;;;;0.63;0.60;;;;;;;26.07;30.45;99775.22;5051646;28;20398;-62
2022/09/02 15:38:13;;;;;;;0.63;0.50;;;;;;;26.00;30.73;99769.31;5051411;28;20068;-63
2022/09/02 15:40:38;;;;;;;0.77;0.73;;;;;;;25.99;30.74;99778.59;5051337;28;20032;-63
2022/09/02 15:43:04;;;;;;;0.50;0.50;;;;;;;25.97;31.63;99765.25;5051660;28;20048;-62
2022/09/02 15:45:30;;;;;;;0.50;0.50;;;;;;;25.86;31.20;99771.88;5051439;28;20037;-63
2022/09/02 15:47:57;;;;;;;0.40;0.40;;;;;;;25.67;31.78;99773.63;5051376;28;20119;-63
2022/09/02 15:50:23;;;;;;;1.23;0.52;;;;;;;25.83;31.51;99768.91;5050852;28;20064;-63
2022/09/02 15:52:48;;;;;;;0.50;0.50;;;;;;;25.84;31.51;99762.38;5051256;28;20130;-63
2022/09/02 15:55:14;;;;;;;0.40;0.40;;;;;;;25.82;31.40;99753.63;5051286;28;20139;-54
2022/09/02 15:57:40;;;;;;;0.73;0.65;;;;;;;25.86;32.08;99754.69;5051336;28;20048;-58
2022/09/02 16:00:07;;;;;;;0.60;0.60;;;;;;;25.69;31.92;99753.19;5050953;28;20048;-59
2022/09/02 16:02:36;;;;;;;0.98;0.52;;;;;;;25.62;32.03;99744.47;5051270;28;20130;-53
2022/09/02 16:05:02;;;;;;;1.13;0.55;;;;;;;25.59;31.65;99745.06;5051360;28;20474;-58
2022/09/02 16:07:28;;;;;;;0.90;0.50;;;;;;;25.48;32.27;99748.94;5051286;28;20164;-56
2022/09/02 16:09:53;;;;;;;3.50;0.90;;;;;;;25.45;32.15;99749.53;5050726;28;20040;-50
2022/09/02 16:12:18;;;;;;;0.43;0.43;;;;;;;25.39;31.97;99747.94;5050995;28;20447;-55
2022/09/02 16:14:48;;;;;;;1.05;0.95;;;;;;;25.35;32.56;99746.88;5049719;28;20091;-52
2022/09/02 16:17:15;;;;;;;1.00;0.68;;;;;;;25.39;32.89;99742.50;5050962;28;20064;-55